Whyteleafe, United Kingdom
Current Conditions -  °F | °C
As of 12:50 PM on Monday 20 Oct 2014 (Local Time) from EGKB Reporting Station
Broken Clouds Broken Clouds  
Wind Chill: 15°   Ceiling: 2500
Heat Index: 15°   Visibility: 6mi
Dew Point:   Wind: 14mph
Humidity: 63%   Direction: 230°SW
Pressure: 30.03"   Gusts: NA
Location:  51.31°N, 0.08°W
Report Text: EGKB 201150Z 23012KT 200V260 9999 BKN025 15/08 Q1017
Loading
Personal Weather Stations






























Interactive Weather Map
Tropical Storm Tracking
New forecast layout! Learn more

10-Day Weather Forecast

Advertisements
Track Severe Weather on mobile